sensor_id;sensor_type;location;lat;lon;timestamp;pressure;altitude;pressure_sealevel;temperature;humidity
19005;BME280;9635;52.078;8.648;2023-10-19T00:04:38;98640.25;;;7.51;100.00
19005;BME280;9635;52.078;8.648;2023-10-19T00:09:42;98632.59;;;7.66;100.00
19005;BME280;9635;52.078;8.648;2023-10-19T00:14:48;98627.59;;;7.53;100.00
19005;BME280;9635;52.078;8.648;2023-10-19T00:19:53;98609.13;;;7.32;100.00
19005;BME280;9635;52.078;8.648;2023-10-19T00:25:20;98594.59;;;7.44;100.00
19005;BME280;9635;52.078;8.648;2023-10-19T00:30:25;98581.97;;;7.37;100.00
19005;BME280;9635;52.078;8.648;2023-10-19T00:35:34;98573.56;;;7.32;100.00
19005;BME280;9635;52.078;8.648;2023-10-19T00:40:38;98560.19;;;7.04;100.00
19005;BME280;9635;52.078;8.648;2023-10-19T00:45:42;98556.34;;;6.69;100.00
19005;BME280;9635;52.078;8.648;2023-10-19T00:50:50;98552.66;;;6.90;100.00
19005;BME280;9635;52.078;8.648;2023-10-19T00:56:09;98544.75;;;7.08;100.00
19005;BME280;9635;52.078;8.648;2023-10-19T01:01:12;98540.56;;;7.23;100.00
19005;BME280;9635;52.078;8.648;2023-10-19T01:06:17;98532.72;;;7.21;100.00
19005;BME280;9635;52.078;8.648;2023-10-19T01:11:22;98534.19;;;7.34;100.00
19005;BME280;9635;52.078;8.648;2023-10-19T01:16:30;98521.84;;;7.33;100.00
19005;BME280;9635;52.078;8.648;2023-10-19T01:21:35;98508.41;;;7.24;100.00
19005;BME280;9635;52.078;8.648;2023-10-19T01:26:41;98509.72;;;7.38;100.00
19005;BME280;9635;52.078;8.648;2023-10-19T01:31:43;98498.81;;;7.49;100.00
19005;BME280;9635;52.078;8.648;2023-10-19T01:37:06;98487.22;;;7.41;100.00
19005;BME280;9635;52.078;8.648;2023-10-19T01:42:10;98484.28;;;7.16;100.00
19005;BME280;9635;52.078;8.648;2023-10-19T01:47:14;98482.75;;;7.32;100.00
19005;BME280;9635;52.078;8.648;2023-10-19T01:52:18;98473.00;;;7.40;100.00
19005;BME280;9635;52.078;8.648;2023-10-19T01:57:22;98470.75;;;7.18;100.00
19005;BME280;9635;52.078;8.648;2023-10-19T02:02:27;98464.81;;;7.24;100.00
19005;BME280;9635;52.078;8.648;2023-10-19T02:07:34;98455.28;;;7.21;100.00
19005;BME280;9635;52.078;8.648;2023-10-19T02:12:39;98441.06;;;7.21;100.00
19005;BME280;9635;52.078;8.648;2023-10-19T02:17:43;98434.47;;;7.25;100.00
19005;BME280;9635;52.078;8.648;2023-10-19T02:22:47;98435.28;;;7.25;100.00
19005;BME280;9635;52.078;8.648;2023-10-19T02:27:51;98434.09;;;7.38;100.00
19005;BME280;9635;52.078;8.648;2023-10-19T02:32:55;98423.63;;;7.44;100.00
19005;BME280;9635;52.078;8.648;2023-10-19T02:37:58;98421.50;;;7.30;100.00
19005;BME280;9635;52.078;8.648;2023-10-19T02:43:03;98411.78;;;7.29;100.00
19005;BME280;9635;52.078;8.648;2023-10-19T02:48:06;98399.66;;;7.35;100.00
19005;BME280;9635;52.078;8.648;2023-10-19T02:53:13;98401.81;;;7.49;100.00
19005;BME280;9635;52.078;8.648;2023-10-19T02:58:17;98403.41;;;7.42;100.00
19005;BME280;9635;52.078;8.648;2023-10-19T03:03:20;98388.75;;;7.28;100.00
19005;BME280;9635;52.078;8.648;2023-10-19T03:08:23;98382.34;;;7.39;100.00
19005;BME280;9635;52.078;8.648;2023-10-19T03:13:29;98383.34;;;7.38;100.00
19005;BME280;9635;52.078;8.648;2023-10-19T03:18:33;98371.06;;;7.63;100.00
19005;BME280;9635;52.078;8.648;2023-10-19T03:23:36;98365.78;;;7.53;100.00
19005;BME280;9635;52.078;8.648;2023-10-19T03:28:40;98363.50;;;7.58;100.00
19005;BME280;9635;52.078;8.648;2023-10-19T03:33:44;98361.06;;;7.47;100.00
19005;BME280;9635;52.078;8.648;2023-10-19T03:38:51;98359.75;;;7.51;100.00
19005;BME280;9635;52.078;8.648;2023-10-19T03:43:56;98360.69;;;7.60;100.00
19005;BME280;9635;52.078;8.648;2023-10-19T03:49:00;98343.88;;;7.49;100.00
19005;BME280;9635;52.078;8.648;2023-10-19T03:54:12;98344.53;;;7.69;100.00
19005;BME280;9635;52.078;8.648;2023-10-19T03:59:25;98340.72;;;7.72;100.00
19005;BME280;9635;52.078;8.648;2023-10-19T04:04:31;98340.09;;;7.78;100.00
19005;BME280;9635;52.078;8.648;2023-10-19T04:09:36;98324.63;;;7.64;100.00
19005;BME280;9635;52.078;8.648;2023-10-19T04:14:59;98320.91;;;7.83;100.00
19005;BME280;9635;52.078;8.648;2023-10-19T04:20:12;98315.72;;;7.81;100.00
19005;BME280;9635;52.078;8.648;2023-10-19T04:25:37;98306.34;;;7.77;100.00
19005;BME280;9635;52.078;8.648;2023-10-19T04:30:41;98299.25;;;7.94;100.00
19005;BME280;9635;52.078;8.648;2023-10-19T04:35:45;98306.44;;;7.93;100.00
19005;BME280;9635;52.078;8.648;2023-10-19T04:40:49;98298.06;;;7.88;100.00
19005;BME280;9635;52.078;8.648;2023-10-19T04:45:54;98319.22;;;8.08;100.00
19005;BME280;9635;52.078;8.648;2023-10-19T04:50:58;98306.66;;;8.00;100.00
19005;BME280;9635;52.078;8.648;2023-10-19T04:56:02;98303.50;;;8.05;100.00
19005;BME280;9635;52.078;8.648;2023-10-19T05:01:07;98288.63;;;8.02;100.00
19005;BME280;9635;52.078;8.648;2023-10-19T05:06:13;98293.00;;;8.11;100.00
19005;BME280;9635;52.078;8.648;2023-10-19T05:11:16;98277.63;;;8.13;100.00
19005;BME280;9635;52.078;8.648;2023-10-19T05:16:20;98280.28;;;8.05;100.00
19005;BME280;9635;52.078;8.648;2023-10-19T05:21:23;98275.94;;;8.04;100.00
19005;BME280;9635;52.078;8.648;2023-10-19T05:26:27;98284.50;;;8.16;100.00
19005;BME280;9635;52.078;8.648;2023-10-19T05:31:31;98281.19;;;8.22;100.00
19005;BME280;9635;52.078;8.648;2023-10-19T05:36:35;98284.41;;;8.26;100.00
19005;BME280;9635;52.078;8.648;2023-10-19T05:41:38;98280.03;;;8.25;100.00
19005;BME280;9635;52.078;8.648;2023-10-19T05:46:42;98282.38;;;8.28;100.00
19005;BME280;9635;52.078;8.648;2023-10-19T05:51:45;98285.75;;;8.30;100.00
19005;BME280;9635;52.078;8.648;2023-10-19T05:56:49;98290.69;;;8.16;100.00
19005;BME280;9635;52.078;8.648;2023-10-19T06:01:53;98293.13;;;8.36;100.00
19005;BME280;9635;52.078;8.648;2023-10-19T06:06:56;98300.03;;;8.47;100.00
19005;BME280;9635;52.078;8.648;2023-10-19T06:11:59;98301.91;;;8.54;100.00
19005;BME280;9635;52.078;8.648;2023-10-19T06:17:03;98309.28;;;8.60;100.00
19005;BME280;9635;52.078;8.648;2023-10-19T06:22:06;98312.00;;;8.69;100.00
19005;BME280;9635;52.078;8.648;2023-10-19T06:27:09;98309.81;;;8.64;100.00
19005;BME280;9635;52.078;8.648;2023-10-19T06:32:13;98314.88;;;8.75;100.00
19005;BME280;9635;52.078;8.648;2023-10-19T06:37:17;98324.09;;;8.81;100.00
19005;BME280;9635;52.078;8.648;2023-10-19T06:42:20;98323.06;;;8.82;100.00
19005;BME280;9635;52.078;8.648;2023-10-19T06:47:24;98324.28;;;8.96;100.00
19005;BME280;9635;52.078;8.648;2023-10-19T06:52:27;98318.44;;;9.09;100.00
19005;BME280;9635;52.078;8.648;2023-10-19T06:57:30;98309.59;;;9.08;100.00
19005;BME280;9635;52.078;8.648;2023-10-19T07:02:35;98320.13;;;9.10;100.00
19005;BME280;9635;52.078;8.648;2023-10-19T07:07:40;98323.97;;;9.15;100.00
19005;BME280;9635;52.078;8.648;2023-10-19T07:12:44;98334.03;;;9.46;100.00
19005;BME280;9635;52.078;8.648;2023-10-19T07:17:49;98313.47;;;9.87;100.00
19005;BME280;9635;52.078;8.648;2023-10-19T07:22:54;98317.56;;;10.14;100.00
19005;BME280;9635;52.078;8.648;2023-10-19T07:27:58;98329.81;;;10.09;100.00
19005;BME280;9635;52.078;8.648;2023-10-19T07:33:03;98321.72;;;10.25;100.00
19005;BME280;9635;52.078;8.648;2023-10-19T07:38:07;98315.84;;;10.38;100.00
19005;BME280;9635;52.078;8.648;2023-10-19T07:43:10;98323.97;;;10.53;100.00
19005;BME280;9635;52.078;8.648;2023-10-19T07:48:14;98315.69;;;10.71;100.00
19005;BME280;9635;52.078;8.648;2023-10-19T07:53:18;98323.34;;;10.82;100.00
19005;BME280;9635;52.078;8.648;2023-10-19T07:58:23;98318.19;;;11.03;100.00
19005;BME280;9635;52.078;8.648;2023-10-19T08:03:27;98314.31;;;11.14;100.00
19005;BME280;9635;52.078;8.648;2023-10-19T08:08:30;98323.44;;;10.97;100.00
19005;BME280;9635;52.078;8.648;2023-10-19T08:13:35;98325.88;;;10.83;100.00
19005;BME280;9635;52.078;8.648;2023-10-19T08:18:40;98332.84;;;10.70;100.00
19005;BME280;9635;52.078;8.648;2023-10-19T08:23:43;98340.88;;;10.70;100.00
19005;BME280;9635;52.078;8.648;2023-10-19T08:28:46;98330.06;;;10.86;100.00
19005;BME280;9635;52.078;8.648;2023-10-19T08:33:52;98339.38;;;10.98;100.00
19005;BME280;9635;52.078;8.648;2023-10-19T08:38:58;98347.69;;;11.12;100.00
19005;BME280;9635;52.078;8.648;2023-10-19T08:44:07;98344.75;;;11.53;100.00
19005;BME280;9635;52.078;8.648;2023-10-19T08:49:15;98344.06;;;11.73;100.00
19005;BME280;9635;52.078;8.648;2023-10-19T08:54:18;98341.72;;;11.93;100.00
19005;BME280;9635;52.078;8.648;2023-10-19T08:59:21;98332.25;;;11.98;100.00
19005;BME280;9635;52.078;8.648;2023-10-19T09:04:26;98327.81;;;12.05;100.00
19005;BME280;9635;52.078;8.648;2023-10-19T09:09:30;98337.22;;;12.24;100.00
19005;BME280;9635;52.078;8.648;2023-10-19T09:14:35;98324.31;;;12.19;100.00
19005;BME280;9635;52.078;8.648;2023-10-19T09:19:46;98327.38;;;12.31;100.00
19005;BME280;9635;52.078;8.648;2023-10-19T09:24:50;98331.84;;;12.38;100.00
19005;BME280;9635;52.078;8.648;2023-10-19T09:29:54;98331.84;;;12.38;100.00
19005;BME280;9635;52.078;8.648;2023-10-19T09:34:59;98317.00;;;12.57;100.00
19005;BME280;9635;52.078;8.648;2023-10-19T09:40:05;98324.59;;;12.83;100.00
19005;BME280;9635;52.078;8.648;2023-10-19T09:45:18;98319.53;;;12.95;100.00
19005;BME280;9635;52.078;8.648;2023-10-19T09:50:23;98320.28;;;12.89;100.00
19005;BME280;9635;52.078;8.648;2023-10-19T09:55:32;98320.06;;;13.05;100.00
19005;BME280;9635;52.078;8.648;2023-10-19T10:00:36;98313.00;;;13.26;100.00
19005;BME280;9635;52.078;8.648;2023-10-19T10:05:47;98313.19;;;13.39;100.00
19005;BME280;9635;52.078;8.648;2023-10-19T10:10:51;98308.28;;;13.28;100.00
19005;BME280;9635;52.078;8.648;2023-10-19T10:15:55;98296.97;;;13.18;100.00
19005;BME280;9635;52.078;8.648;2023-10-19T10:21:07;98305.00;;;13.11;100.00
19005;BME280;9635;52.078;8.648;2023-10-19T10:26:11;98299.59;;;13.11;100.00
19005;BME280;9635;52.078;8.648;2023-10-19T10:31:19;98296.06;;;13.32;100.00
19005;BME280;9635;52.078;8.648;2023-10-19T10:36:25;98301.44;;;13.47;100.00
19005;BME280;9635;52.078;8.648;2023-10-19T10:41:28;98302.44;;;13.46;100.00
19005;BME280;9635;52.078;8.648;2023-10-19T10:46:31;98287.97;;;13.75;100.00
19005;BME280;9635;52.078;8.648;2023-10-19T10:51:36;98286.22;;;13.96;100.00
19005;BME280;9635;52.078;8.648;2023-10-19T10:56:43;98276.66;;;16.30;100.00
19005;BME280;9635;52.078;8.648;2023-10-19T11:01:46;98261.00;;;19.38;80.88
19005;BME280;9635;52.078;8.648;2023-10-19T11:06:51;98275.78;;;19.00;68.66
19005;BME280;9635;52.078;8.648;2023-10-19T11:11:56;98288.53;;;17.26;81.38
19005;BME280;9635;52.078;8.648;2023-10-19T11:17:13;98289.13;;;16.31;86.10
19005;BME280;9635;52.078;8.648;2023-10-19T11:22:18;98280.56;;;16.93;85.26
19005;BME280;9635;52.078;8.648;2023-10-19T11:27:25;98276.03;;;16.87;84.63
19005;BME280;9635;52.078;8.648;2023-10-19T11:32:36;98264.00;;;18.70;80.42
19005;BME280;9635;52.078;8.648;2023-10-19T11:37:49;98274.47;;;18.54;81.33
19005;BME280;9635;52.078;8.648;2023-10-19T11:42:52;98270.25;;;17.15;78.67
19005;BME280;9635;52.078;8.648;2023-10-19T11:47:58;98265.47;;;17.17;76.88
19005;BME280;9635;52.078;8.648;2023-10-19T11:53:02;98263.16;;;17.14;76.21
19005;BME280;9635;52.078;8.648;2023-10-19T11:58:07;98265.81;;;16.17;80.94
19005;BME280;9635;52.078;8.648;2023-10-19T12:03:12;98261.88;;;16.06;82.71
19005;BME280;9635;52.078;8.648;2023-10-19T12:08:17;98261.03;;;16.06;83.11
19005;BME280;9635;52.078;8.648;2023-10-19T12:13:20;98246.28;;;16.02;82.02
19005;BME280;9635;52.078;8.648;2023-10-19T12:18:23;98253.31;;;16.09;81.86
19005;BME280;9635;52.078;8.648;2023-10-19T12:23:29;98260.44;;;15.90;83.37
19005;BME280;9635;52.078;8.648;2023-10-19T12:28:33;98256.03;;;16.16;83.11
19005;BME280;9635;52.078;8.648;2023-10-19T12:33:36;98260.59;;;16.29;78.84
19005;BME280;9635;52.078;8.648;2023-10-19T12:38:41;98257.63;;;16.44;78.89
19005;BME280;9635;52.078;8.648;2023-10-19T12:43:44;98247.28;;;16.27;79.58
19005;BME280;9635;52.078;8.648;2023-10-19T12:48:48;98250.50;;;16.94;78.55
19005;BME280;9635;52.078;8.648;2023-10-19T12:53:53;98231.28;;;18.46;70.63
19005;BME280;9635;52.078;8.648;2023-10-19T12:58:57;98243.28;;;17.95;73.11
19005;BME280;9635;52.078;8.648;2023-10-19T13:04:00;98227.44;;;18.17;70.92
19005;BME280;9635;52.078;8.648;2023-10-19T13:09:10;98214.28;;;18.99;69.39
19005;BME280;9635;52.078;8.648;2023-10-19T13:14:13;98216.09;;;20.06;66.37
19005;BME280;9635;52.078;8.648;2023-10-19T13:19:17;98207.72;;;20.48;64.17
19005;BME280;9635;52.078;8.648;2023-10-19T13:24:23;98207.06;;;20.98;60.97
19005;BME280;9635;52.078;8.648;2023-10-19T13:29:27;98204.25;;;19.89;65.64
19005;BME280;9635;52.078;8.648;2023-10-19T13:34:32;98196.38;;;18.92;68.37
19005;BME280;9635;52.078;8.648;2023-10-19T13:39:36;98196.00;;;18.40;72.10
19005;BME280;9635;52.078;8.648;2023-10-19T13:44:41;98205.09;;;18.33;69.89
19005;BME280;9635;52.078;8.648;2023-10-19T13:49:43;98210.78;;;17.13;75.67
19005;BME280;9635;52.078;8.648;2023-10-19T13:54:49;98204.13;;;17.84;74.48
19005;BME280;9635;52.078;8.648;2023-10-19T13:59:52;98190.09;;;17.69;74.63
19005;BME280;9635;52.078;8.648;2023-10-19T14:04:56;98196.50;;;18.00;74.00
19005;BME280;9635;52.078;8.648;2023-10-19T14:10:04;98190.84;;;17.01;77.14
19005;BME280;9635;52.078;8.648;2023-10-19T14:15:13;98194.50;;;16.43;79.81
19005;BME280;9635;52.078;8.648;2023-10-19T14:20:17;98193.16;;;16.07;82.23
19005;BME280;9635;52.078;8.648;2023-10-19T14:25:22;98189.13;;;16.23;82.86
19005;BME280;9635;52.078;8.648;2023-10-19T14:30:26;98188.69;;;16.33;82.97
19005;BME280;9635;52.078;8.648;2023-10-19T14:35:30;98187.25;;;16.24;83.49
19005;BME280;9635;52.078;8.648;2023-10-19T14:40:35;98181.22;;;16.22;84.11
19005;BME280;9635;52.078;8.648;2023-10-19T14:45:40;98182.16;;;15.89;85.59
19005;BME280;9635;52.078;8.648;2023-10-19T14:50:43;98173.22;;;15.75;86.70
19005;BME280;9635;52.078;8.648;2023-10-19T14:55:47;98164.31;;;15.61;87.40
19005;BME280;9635;52.078;8.648;2023-10-19T15:00:50;98146.41;;;15.54;87.75
19005;BME280;9635;52.078;8.648;2023-10-19T15:05:57;98137.47;;;15.33;88.14
19005;BME280;9635;52.078;8.648;2023-10-19T15:11:02;98152.88;;;15.26;88.80
19005;BME280;9635;52.078;8.648;2023-10-19T15:16:08;98151.22;;;14.98;90.66
19005;BME280;9635;52.078;8.648;2023-10-19T15:21:12;98153.88;;;14.92;91.67
19005;BME280;9635;52.078;8.648;2023-10-19T15:26:20;98149.09;;;14.80;92.47
19005;BME280;9635;52.078;8.648;2023-10-19T15:31:24;98152.00;;;14.86;92.40
19005;BME280;9635;52.078;8.648;2023-10-19T15:36:26;98140.56;;;14.83;92.88
19005;BME280;9635;52.078;8.648;2023-10-19T15:41:31;98129.56;;;14.85;92.97
19005;BME280;9635;52.078;8.648;2023-10-19T15:46:33;98124.16;;;14.78;93.31
19005;BME280;9635;52.078;8.648;2023-10-19T15:51:41;98125.19;;;14.77;93.64
19005;BME280;9635;52.078;8.648;2023-10-19T15:56:45;98129.56;;;14.72;93.85
19005;BME280;9635;52.078;8.648;2023-10-19T16:01:48;98114.78;;;14.54;94.67
19005;BME280;9635;52.078;8.648;2023-10-19T16:06:51;98118.69;;;14.38;96.00
19005;BME280;9635;52.078;8.648;2023-10-19T16:11:55;98119.25;;;14.34;96.47
19005;BME280;9635;52.078;8.648;2023-10-19T16:16:58;98106.78;;;14.26;96.79
19005;BME280;9635;52.078;8.648;2023-10-19T16:22:01;98105.75;;;14.21;97.05
19005;BME280;9635;52.078;8.648;2023-10-19T16:27:05;98092.19;;;14.14;97.78
19005;BME280;9635;52.078;8.648;2023-10-19T16:32:09;98089.09;;;14.10;97.86
19005;BME280;9635;52.078;8.648;2023-10-19T16:37:12;98079.94;;;14.05;98.05
19005;BME280;9635;52.078;8.648;2023-10-19T16:42:16;98089.03;;;14.04;98.14
19005;BME280;9635;52.078;8.648;2023-10-19T16:47:19;98089.47;;;14.01;98.14
19005;BME280;9635;52.078;8.648;2023-10-19T16:52:24;98086.53;;;13.96;98.64
19005;BME280;9635;52.078;8.648;2023-10-19T16:57:29;98087.16;;;13.91;98.87
19005;BME280;9635;52.078;8.648;2023-10-19T17:02:32;98093.56;;;13.83;99.32
19005;BME280;9635;52.078;8.648;2023-10-19T17:07:35;98088.34;;;13.82;99.09
19005;BME280;9635;52.078;8.648;2023-10-19T17:12:40;98080.66;;;13.79;99.59
19005;BME280;9635;52.078;8.648;2023-10-19T17:17:43;98092.28;;;13.79;99.38
19005;BME280;9635;52.078;8.648;2023-10-19T17:22:46;98097.88;;;13.78;99.68
19005;BME280;9635;52.078;8.648;2023-10-19T17:27:50;98092.69;;;13.76;99.70
19005;BME280;9635;52.078;8.648;2023-10-19T17:32:53;98094.13;;;13.72;100.00
19005;BME280;9635;52.078;8.648;2023-10-19T17:38:06;98075.66;;;13.69;99.93
19005;BME280;9635;52.078;8.648;2023-10-19T17:43:11;98075.66;;;13.69;100.00
19005;BME280;9635;52.078;8.648;2023-10-19T17:48:15;98079.13;;;13.63;100.00
19005;BME280;9635;52.078;8.648;2023-10-19T17:53:19;98078.88;;;13.51;100.00
19005;BME280;9635;52.078;8.648;2023-10-19T17:58:23;98081.47;;;13.38;100.00
19005;BME280;9635;52.078;8.648;2023-10-19T18:03:26;98074.72;;;13.20;100.00
19005;BME280;9635;52.078;8.648;2023-10-19T18:08:30;98087.41;;;12.98;100.00
19005;BME280;9635;52.078;8.648;2023-10-19T18:13:35;98085.00;;;12.82;100.00
19005;BME280;9635;52.078;8.648;2023-10-19T18:18:38;98106.25;;;12.70;100.00
19005;BME280;9635;52.078;8.648;2023-10-19T18:23:41;98100.78;;;12.64;100.00
19005;BME280;9635;52.078;8.648;2023-10-19T18:28:47;98088.16;;;12.64;100.00
19005;BME280;9635;52.078;8.648;2023-10-19T18:33:50;98089.75;;;12.58;100.00
19005;BME280;9635;52.078;8.648;2023-10-19T18:38:54;98081.63;;;12.52;100.00
19005;BME280;9635;52.078;8.648;2023-10-19T18:43:59;98088.78;;;12.45;100.00
19005;BME280;9635;52.078;8.648;2023-10-19T18:49:04;98086.69;;;12.40;100.00
19005;BME280;9635;52.078;8.648;2023-10-19T18:54:12;98078.16;;;12.36;100.00
19005;BME280;9635;52.078;8.648;2023-10-19T18:59:19;98080.78;;;12.30;100.00
19005;BME280;9635;52.078;8.648;2023-10-19T19:04:23;98084.53;;;12.29;100.00
19005;BME280;9635;52.078;8.648;2023-10-19T19:09:25;98077.28;;;12.29;100.00
19005;BME280;9635;52.078;8.648;2023-10-19T19:14:30;98068.16;;;12.30;100.00
19005;BME280;9635;52.078;8.648;2023-10-19T19:19:33;98056.91;;;12.27;100.00
19005;BME280;9635;52.078;8.648;2023-10-19T19:24:36;98065.69;;;12.14;100.00
19005;BME280;9635;52.078;8.648;2023-10-19T19:29:41;98059.75;;;12.04;100.00
19005;BME280;9635;52.078;8.648;2023-10-19T19:34:44;98056.75;;;11.92;100.00
19005;BME280;9635;52.078;8.648;2023-10-19T19:39:47;98044.44;;;11.83;100.00
19005;BME280;9635;52.078;8.648;2023-10-19T19:44:52;98041.66;;;11.76;100.00
19005;BME280;9635;52.078;8.648;2023-10-19T19:49:55;98040.56;;;11.70;100.00
19005;BME280;9635;52.078;8.648;2023-10-19T19:54:58;98037.59;;;11.65;100.00
19005;BME280;9635;52.078;8.648;2023-10-19T20:00:03;98033.34;;;11.56;100.00
19005;BME280;9635;52.078;8.648;2023-10-19T20:05:16;98040.88;;;11.61;100.00
19005;BME280;9635;52.078;8.648;2023-10-19T20:10:19;98059.22;;;11.72;100.00
19005;BME280;9635;52.078;8.648;2023-10-19T20:15:24;98053.91;;;11.79;100.00
19005;BME280;9635;52.078;8.648;2023-10-19T20:20:27;98040.66;;;11.77;100.00
19005;BME280;9635;52.078;8.648;2023-10-19T20:25:31;98040.28;;;11.80;100.00
19005;BME280;9635;52.078;8.648;2023-10-19T20:30:36;98043.25;;;11.85;100.00
19005;BME280;9635;52.078;8.648;2023-10-19T20:35:39;98052.97;;;11.86;100.00
19005;BME280;9635;52.078;8.648;2023-10-19T20:40:42;98040.53;;;11.85;100.00
19005;BME280;9635;52.078;8.648;2023-10-19T20:45:46;98032.75;;;11.90;100.00
19005;BME280;9635;52.078;8.648;2023-10-19T20:50:51;98034.97;;;11.87;100.00
19005;BME280;9635;52.078;8.648;2023-10-19T20:55:58;98035.59;;;11.89;100.00
19005;BME280;9635;52.078;8.648;2023-10-19T21:01:05;98042.66;;;11.90;100.00
19005;BME280;9635;52.078;8.648;2023-10-19T21:06:11;98039.97;;;11.90;100.00
19005;BME280;9635;52.078;8.648;2023-10-19T21:11:14;98038.13;;;11.90;100.00
19005;BME280;9635;52.078;8.648;2023-10-19T21:16:19;98030.22;;;11.89;100.00
19005;BME280;9635;52.078;8.648;2023-10-19T21:21:22;98030.63;;;11.86;100.00
19005;BME280;9635;52.078;8.648;2023-10-19T21:26:26;98029.13;;;11.83;100.00
19005;BME280;9635;52.078;8.648;2023-10-19T21:31:30;98023.75;;;11.83;100.00
19005;BME280;9635;52.078;8.648;2023-10-19T21:36:33;98009.22;;;11.78;100.00
19005;BME280;9635;52.078;8.648;2023-10-19T21:41:36;97992.03;;;11.79;100.00
19005;BME280;9635;52.078;8.648;2023-10-19T21:46:40;97985.19;;;11.76;100.00
19005;BME280;9635;52.078;8.648;2023-10-19T21:51:43;97977.31;;;11.75;100.00
19005;BME280;9635;52.078;8.648;2023-10-19T21:56:46;97953.94;;;11.75;100.00
19005;BME280;9635;52.078;8.648;2023-10-19T22:01:50;97932.25;;;11.77;100.00
19005;BME280;9635;52.078;8.648;2023-10-19T22:06:54;97922.91;;;11.72;100.00
19005;BME280;9635;52.078;8.648;2023-10-19T22:12:06;97930.56;;;11.76;100.00
19005;BME280;9635;52.078;8.648;2023-10-19T22:17:12;97926.03;;;11.76;100.00
19005;BME280;9635;52.078;8.648;2023-10-19T22:22:16;97912.53;;;11.69;100.00
19005;BME280;9635;52.078;8.648;2023-10-19T22:27:19;97903.81;;;11.67;100.00
19005;BME280;9635;52.078;8.648;2023-10-19T22:32:23;97923.28;;;11.69;100.00
19005;BME280;9635;52.078;8.648;2023-10-19T22:37:27;97906.38;;;11.76;100.00
19005;BME280;9635;52.078;8.648;2023-10-19T22:42:30;97914.25;;;11.77;100.00
19005;BME280;9635;52.078;8.648;2023-10-19T22:47:34;97912.19;;;11.79;100.00
19005;BME280;9635;52.078;8.648;2023-10-19T22:52:37;97915.09;;;11.78;100.00
19005;BME280;9635;52.078;8.648;2023-10-19T22:57:41;97903.50;;;11.77;100.00
19005;BME280;9635;52.078;8.648;2023-10-19T23:02:46;97890.06;;;11.77;100.00
19005;BME280;9635;52.078;8.648;2023-10-19T23:07:50;97886.47;;;11.70;100.00
19005;BME280;9635;52.078;8.648;2023-10-19T23:12:54;97879.94;;;11.58;100.00
19005;BME280;9635;52.078;8.648;2023-10-19T23:17:59;97879.69;;;11.53;100.00
19005;BME280;9635;52.078;8.648;2023-10-19T23:23:04;97879.09;;;11.57;100.00
19005;BME280;9635;52.078;8.648;2023-10-19T23:28:11;97883.47;;;11.58;100.00
19005;BME280;9635;52.078;8.648;2023-10-19T23:33:18;97876.41;;;11.57;100.00
19005;BME280;9635;52.078;8.648;2023-10-19T23:38:22;97892.53;;;11.57;100.00
19005;BME280;9635;52.078;8.648;2023-10-19T23:43:25;97874.38;;;11.59;100.00
19005;BME280;9635;52.078;8.648;2023-10-19T23:48:30;97861.38;;;11.63;100.00
19005;BME280;9635;52.078;8.648;2023-10-19T23:53:33;97862.78;;;11.59;100.00
19005;BME280;9635;52.078;8.648;2023-10-19T23:58:36;97863.56;;;11.53;100.00
